sensor_id;sensor_type;location;lat;lon;timestamp;pressure;altitude;pressure_sealevel;temperature;humidity
31121;BME280;17770;45.966;13.632;2023-05-01T00:00:39;100580.13;;;22.40;57.26
31121;BME280;17770;45.966;13.632;2023-05-01T00:03:06;100584.69;;;22.38;57.33
31121;BME280;17770;45.966;13.632;2023-05-01T00:05:32;100575.94;;;22.37;57.36
31121;BME280;17770;45.966;13.632;2023-05-01T00:07:58;100582.13;;;22.36;57.64
31121;BME280;17770;45.966;13.632;2023-05-01T00:10:24;100576.88;;;22.36;57.30
31121;BME280;17770;45.966;13.632;2023-05-01T00:12:49;100576.06;;;22.36;57.41
31121;BME280;17770;45.966;13.632;2023-05-01T00:15:15;100576.19;;;22.34;57.20
31121;BME280;17770;45.966;13.632;2023-05-01T00:17:41;100577.00;;;22.35;57.08
31121;BME280;17770;45.966;13.632;2023-05-01T00:20:07;100579.75;;;22.33;57.32
31121;BME280;17770;45.966;13.632;2023-05-01T00:22:34;100578.09;;;22.32;57.54
31121;BME280;17770;45.966;13.632;2023-05-01T00:25:00;100574.59;;;22.32;57.06
31121;BME280;17770;45.966;13.632;2023-05-01T00:27:25;100569.34;;;22.32;57.12
31121;BME280;17770;45.966;13.632;2023-05-01T00:29:51;100573.78;;;22.31;57.19
31121;BME280;17770;45.966;13.632;2023-05-01T00:32:17;100574.72;;;22.30;57.13
31121;BME280;17770;45.966;13.632;2023-05-01T00:34:43;100573.88;;;22.30;57.51
31121;BME280;17770;45.966;13.632;2023-05-01T00:37:12;100568.63;;;22.30;57.36
31121;BME280;17770;45.966;13.632;2023-05-01T00:39:38;100569.59;;;22.29;57.32
31121;BME280;17770;45.966;13.632;2023-05-01T00:42:04;100563.38;;;22.30;57.09
31121;BME280;17770;45.966;13.632;2023-05-01T00:44:30;100571.38;;;22.28;57.29
31121;BME280;17770;45.966;13.632;2023-05-01T00:46:56;100562.66;;;22.28;57.24
31121;BME280;17770;45.966;13.632;2023-05-01T00:49:25;100568.03;;;22.26;57.15
31121;BME280;17770;45.966;13.632;2023-05-01T00:51:51;100564.56;;;22.26;57.24
31121;BME280;17770;45.966;13.632;2023-05-01T00:54:20;100560.34;;;22.23;57.28
31121;BME280;17770;45.966;13.632;2023-05-01T00:56:47;100568.34;;;22.22;57.08
31121;BME280;17770;45.966;13.632;2023-05-01T00:59:14;100568.47;;;22.20;57.20
31121;BME280;17770;45.966;13.632;2023-05-01T01:01:40;100571.94;;;22.21;57.23
31121;BME280;17770;45.966;13.632;2023-05-01T01:04:06;100566.69;;;22.21;57.27
31121;BME280;17770;45.966;13.632;2023-05-01T01:12:00;100566.09;;;22.17;57.23
31121;BME280;17770;45.966;13.632;2023-05-01T01:17:29;100566.94;;;22.18;57.24
31121;BME280;17770;45.966;13.632;2023-05-01T01:20:09;100562.72;;;22.15;57.22
31121;BME280;17770;45.966;13.632;2023-05-01T01:22:38;100572.28;;;22.16;57.24
31121;BME280;17770;45.966;13.632;2023-05-01T01:30:23;100557.59;;;22.14;57.15
31121;BME280;17770;45.966;13.632;2023-05-01T01:33:07;100545.53;;;22.11;57.07
31121;BME280;17770;45.966;13.632;2023-05-01T01:35:41;100548.03;;;22.13;57.26
31121;BME280;17770;45.966;13.632;2023-05-01T01:40:38;100544.69;;;22.11;57.33
31121;BME280;17770;45.966;13.632;2023-05-01T01:43:09;100547.31;;;22.11;57.19
31121;BME280;17770;45.966;13.632;2023-05-01T01:45:40;100543.00;;;22.10;57.09
31121;BME280;17770;45.966;13.632;2023-05-01T01:48:10;100543.00;;;22.10;57.08
31121;BME280;17770;45.966;13.632;2023-05-01T01:50:37;100540.47;;;22.08;57.02
31121;BME280;17770;45.966;13.632;2023-05-01T01:53:04;100540.47;;;22.08;57.14
31121;BME280;17770;45.966;13.632;2023-05-01T01:55:31;100536.19;;;22.07;57.14
31121;BME280;17770;45.966;13.632;2023-05-01T01:57:59;100540.59;;;22.07;57.23
31121;BME280;17770;45.966;13.632;2023-05-01T02:00:28;100551.22;;;22.05;57.25
31121;BME280;17770;45.966;13.632;2023-05-01T02:02:54;100536.31;;;22.06;57.18
31121;BME280;17770;45.966;13.632;2023-05-01T02:05:20;100537.25;;;22.05;57.10
31121;BME280;17770;45.966;13.632;2023-05-01T02:07:48;100541.66;;;22.04;57.22
31121;BME280;17770;45.966;13.632;2023-05-01T02:10:14;100540.00;;;22.03;57.20
31121;BME280;17770;45.966;13.632;2023-05-01T02:12:41;100539.16;;;22.03;57.13
31121;BME280;17770;45.966;13.632;2023-05-01T02:15:09;100538.44;;;22.01;56.96
31121;BME280;17770;45.966;13.632;2023-05-01T02:17:37;100536.66;;;22.01;57.22
31121;BME280;17770;45.966;13.632;2023-05-01T02:20:04;100546.41;;;21.99;56.96
31121;BME280;17770;45.966;13.632;2023-05-01T02:22:32;100549.91;;;22.00;57.11
31121;BME280;17770;45.966;13.632;2023-05-01T02:24:58;100545.47;;;22.00;56.93
31121;BME280;17770;45.966;13.632;2023-05-01T02:27:30;100547.38;;;21.98;56.88
31121;BME280;17770;45.966;13.632;2023-05-01T02:29:56;100542.22;;;21.96;56.93
31121;BME280;17770;45.966;13.632;2023-05-01T02:32:22;100536.97;;;21.96;57.05
31121;BME280;17770;45.966;13.632;2023-05-01T02:34:48;100544.97;;;21.95;57.00
31121;BME280;17770;45.966;13.632;2023-05-01T02:37:15;100541.63;;;21.93;56.98
31121;BME280;17770;45.966;13.632;2023-05-01T02:39:42;100542.44;;;21.93;56.89
31121;BME280;17770;45.966;13.632;2023-05-01T02:42:09;100550.44;;;21.92;56.82
31121;BME280;17770;45.966;13.632;2023-05-01T02:44:40;100543.41;;;21.92;56.83
31121;BME280;17770;45.966;13.632;2023-05-01T02:47:09;100540.91;;;21.91;56.79
31121;BME280;17770;45.966;13.632;2023-05-01T02:49:37;100543.53;;;21.91;56.78
31121;BME280;17770;45.966;13.632;2023-05-01T02:52:05;100542.69;;;21.90;56.81
31121;BME280;17770;45.966;13.632;2023-05-01T02:54:31;100539.31;;;21.88;56.95
31121;BME280;17770;45.966;13.632;2023-05-01T02:56:59;100526.31;;;21.87;56.91
31121;BME280;17770;45.966;13.632;2023-05-01T02:59:28;100530.72;;;21.86;56.79
31121;BME280;17770;45.966;13.632;2023-05-01T03:01:53;100527.38;;;21.84;56.88
31121;BME280;17770;45.966;13.632;2023-05-01T03:04:20;100522.94;;;21.85;56.84
31121;BME280;17770;45.966;13.632;2023-05-01T03:06:46;100516.13;;;21.82;56.89
31121;BME280;17770;45.966;13.632;2023-05-01T03:09:12;100511.00;;;21.81;56.76
31121;BME280;17770;45.966;13.632;2023-05-01T03:11:38;100508.50;;;21.79;56.90
31121;BME280;17770;45.966;13.632;2023-05-01T03:14:04;100515.41;;;21.80;56.68
31121;BME280;17770;45.966;13.632;2023-05-01T03:16:30;100507.66;;;21.79;56.79
31121;BME280;17770;45.966;13.632;2023-05-01T03:18:56;100509.31;;;21.80;56.86
31121;BME280;17770;45.966;13.632;2023-05-01T03:21:22;100501.53;;;21.78;56.71
31121;BME280;17770;45.966;13.632;2023-05-01T03:23:48;100508.59;;;21.78;56.82
31121;BME280;17770;45.966;13.632;2023-05-01T03:26:13;100504.28;;;21.77;56.60
31121;BME280;17770;45.966;13.632;2023-05-01T03:28:39;100503.47;;;21.76;56.76
31121;BME280;17770;45.966;13.632;2023-05-01T03:31:05;100499.97;;;21.76;56.67
31121;BME280;17770;45.966;13.632;2023-05-01T03:33:31;100500.09;;;21.74;56.51
31121;BME280;17770;45.966;13.632;2023-05-01T03:35:58;100493.13;;;21.73;56.65
31121;BME280;17770;45.966;13.632;2023-05-01T03:38:24;100490.75;;;21.70;56.84
31121;BME280;17770;45.966;13.632;2023-05-01T03:41:09;100488.13;;;21.70;56.76
31121;BME280;17770;45.966;13.632;2023-05-01T03:43:54;100483.81;;;21.69;56.79
31121;BME280;17770;45.966;13.632;2023-05-01T03:46:33;100482.13;;;21.68;56.79
31121;BME280;17770;45.966;13.632;2023-05-01T03:48:59;100476.88;;;21.68;56.78
31121;BME280;17770;45.966;13.632;2023-05-01T03:51:26;100476.06;;;21.68;56.87
31121;BME280;17770;45.966;13.632;2023-05-01T03:53:54;100476.88;;;21.68;56.79
31121;BME280;17770;45.966;13.632;2023-05-01T03:56:22;100470.94;;;21.66;56.57
31121;BME280;17770;45.966;13.632;2023-05-01T03:58:51;100464.84;;;21.66;56.62
31121;BME280;17770;45.966;13.632;2023-05-01T04:01:17;100456.09;;;21.65;56.48
31121;BME280;17770;45.966;13.632;2023-05-01T04:03:45;100461.47;;;21.64;56.61
31121;BME280;17770;45.966;13.632;2023-05-01T04:06:14;100460.66;;;21.63;56.67
31121;BME280;17770;45.966;13.632;2023-05-01T04:08:41;100458.03;;;21.63;56.52
31121;BME280;17770;45.966;13.632;2023-05-01T04:11:07;100453.72;;;21.62;56.42
31121;BME280;17770;45.966;13.632;2023-05-01T04:13:33;100452.88;;;21.62;56.83
31121;BME280;17770;45.966;13.632;2023-05-01T04:16:01;100444.19;;;21.61;56.56
31121;BME280;17770;45.966;13.632;2023-05-01T04:18:27;100436.41;;;21.60;56.55
31121;BME280;17770;45.966;13.632;2023-05-01T04:20:57;100431.97;;;21.60;56.75
31121;BME280;17770;45.966;13.632;2023-05-01T04:23:23;100435.56;;;21.59;56.58
31121;BME280;17770;45.966;13.632;2023-05-01T04:25:51;100447.84;;;21.59;56.56
31121;BME280;17770;45.966;13.632;2023-05-01T04:28:17;100441.66;;;21.60;56.68
31121;BME280;17770;45.966;13.632;2023-05-01T04:30:43;100436.53;;;21.58;56.78
31121;BME280;17770;45.966;13.632;2023-05-01T04:33:09;100446.31;;;21.56;56.64
31121;BME280;17770;45.966;13.632;2023-05-01T04:35:39;100449.84;;;21.55;56.57
31121;BME280;17770;45.966;13.632;2023-05-01T04:38:06;100442.94;;;21.54;56.43
31121;BME280;17770;45.966;13.632;2023-05-01T04:40:33;100431.59;;;21.54;56.71
31121;BME280;17770;45.966;13.632;2023-05-01T04:42:59;100444.72;;;21.54;56.55
31121;BME280;17770;45.966;13.632;2023-05-01T04:45:26;100445.69;;;21.53;56.45
31121;BME280;17770;45.966;13.632;2023-05-01T04:47:52;100452.72;;;21.52;56.51
31121;BME280;17770;45.966;13.632;2023-05-01T04:50:19;100455.44;;;21.51;56.52
31121;BME280;17770;45.966;13.632;2023-05-01T04:52:45;100450.19;;;21.51;56.33
31121;BME280;17770;45.966;13.632;2023-05-01T04:55:12;100449.34;;;21.50;56.46
31121;BME280;17770;45.966;13.632;2023-05-01T04:57:48;100459.84;;;21.50;56.27
31121;BME280;17770;45.966;13.632;2023-05-01T05:00:14;100460.81;;;21.49;56.14
31121;BME280;17770;45.966;13.632;2023-05-01T05:02:49;100466.06;;;21.49;56.43
31121;BME280;17770;45.966;13.632;2023-05-01T05:05:15;100459.25;;;21.47;56.40
31121;BME280;17770;45.966;13.632;2023-05-01T05:07:41;100455.78;;;21.46;56.25
31121;BME280;17770;45.966;13.632;2023-05-01T05:10:39;100461.03;;;21.46;56.57
31121;BME280;17770;45.966;13.632;2023-05-01T05:13:26;100465.44;;;21.46;56.17
31121;BME280;17770;45.966;13.632;2023-05-01T05:16:01;100463.78;;;21.45;56.36
31121;BME280;17770;45.966;13.632;2023-05-01T05:18:27;100467.34;;;21.44;56.37
31121;BME280;17770;45.966;13.632;2023-05-01T05:20:54;100464.72;;;21.44;56.18
31121;BME280;17770;45.966;13.632;2023-05-01T05:23:20;100468.28;;;21.43;56.23
31121;BME280;17770;45.966;13.632;2023-05-01T05:25:46;100475.31;;;21.42;56.25
31121;BME280;17770;45.966;13.632;2023-05-01T05:28:12;100490.25;;;21.42;56.05
31121;BME280;17770;45.966;13.632;2023-05-01T05:30:39;100491.06;;;21.42;56.28
31121;BME280;17770;45.966;13.632;2023-05-01T05:33:07;100480.69;;;21.41;56.40
31121;BME280;17770;45.966;13.632;2023-05-01T05:35:34;100477.22;;;21.40;56.34
31121;BME280;17770;45.966;13.632;2023-05-01T05:38:01;100479.03;;;21.40;56.14
31121;BME280;17770;45.966;13.632;2023-05-01T05:40:29;100485.19;;;21.39;56.05
31121;BME280;17770;45.966;13.632;2023-05-01T05:42:56;100483.41;;;21.39;56.30
31121;BME280;17770;45.966;13.632;2023-05-01T05:45:24;100482.69;;;21.37;56.18
31121;BME280;17770;45.966;13.632;2023-05-01T05:47:50;100487.81;;;21.39;56.12
31121;BME280;17770;45.966;13.632;2023-05-01T05:50:17;100480.06;;;21.37;56.27
31121;BME280;17770;45.966;13.632;2023-05-01T05:52:44;100483.66;;;21.36;55.88
31121;BME280;17770;45.966;13.632;2023-05-01T05:55:10;100483.66;;;21.36;56.01
31121;BME280;17770;45.966;13.632;2023-05-01T05:57:36;100484.59;;;21.35;56.00
31121;BME280;17770;45.966;13.632;2023-05-01T06:00:05;100481.03;;;21.36;56.08
31121;BME280;17770;45.966;13.632;2023-05-01T06:02:37;100483.66;;;21.36;56.04
31121;BME280;17770;45.966;13.632;2023-05-01T06:05:04;100490.66;;;21.36;55.95
31121;BME280;17770;45.966;13.632;2023-05-01T06:07:30;100488.16;;;21.34;55.88
31121;BME280;17770;45.966;13.632;2023-05-01T06:09:56;100483.88;;;21.33;56.01
31121;BME280;17770;45.966;13.632;2023-05-01T06:12:29;100483.88;;;21.33;56.17
31121;BME280;17770;45.966;13.632;2023-05-01T06:14:55;100490.91;;;21.33;55.88
31121;BME280;17770;45.966;13.632;2023-05-01T06:17:20;100495.19;;;21.34;56.18
31121;BME280;17770;45.966;13.632;2023-05-01T06:19:46;100489.22;;;21.32;56.17
31121;BME280;17770;45.966;13.632;2023-05-01T06:22:12;100490.16;;;21.31;56.06
31121;BME280;17770;45.966;13.632;2023-05-01T06:24:57;100497.22;;;21.30;55.91
31121;BME280;17770;45.966;13.632;2023-05-01T06:27:24;100498.16;;;21.29;56.11
31121;BME280;17770;45.966;13.632;2023-05-01T06:29:50;100496.47;;;21.28;56.12
31121;BME280;17770;45.966;13.632;2023-05-01T06:32:16;100506.03;;;21.29;56.29
31121;BME280;17770;45.966;13.632;2023-05-01T06:34:42;100504.25;;;21.30;56.32
31121;BME280;17770;45.966;13.632;2023-05-01T06:37:08;100509.59;;;21.28;56.22
31121;BME280;17770;45.966;13.632;2023-05-01T06:39:34;100506.97;;;21.28;56.26
31121;BME280;17770;45.966;13.632;2023-05-01T06:42:01;100513.03;;;21.29;56.33
31121;BME280;17770;45.966;13.632;2023-05-01T06:44:37;100518.28;;;21.29;56.13
31121;BME280;17770;45.966;13.632;2023-05-01T06:47:03;100527.00;;;21.29;55.90
31121;BME280;17770;45.966;13.632;2023-05-01T06:49:29;100522.72;;;21.28;56.15
31121;BME280;17770;45.966;13.632;2023-05-01T06:51:55;100527.00;;;21.29;56.17
31121;BME280;17770;45.966;13.632;2023-05-01T06:54:21;100526.16;;;21.29;56.21
31121;BME280;17770;45.966;13.632;2023-05-01T06:56:47;100527.00;;;21.29;56.05
31121;BME280;17770;45.966;13.632;2023-05-01T06:59:13;100529.63;;;21.29;55.97
31121;BME280;17770;45.966;13.632;2023-05-01T07:01:39;100535.84;;;21.28;56.33
31121;BME280;17770;45.966;13.632;2023-05-01T07:04:05;100529.63;;;21.29;56.26
31121;BME280;17770;45.966;13.632;2023-05-01T07:06:31;100527.00;;;21.29;56.16
31121;BME280;17770;45.966;13.632;2023-05-01T07:08:57;100510.34;;;21.30;56.02
31121;BME280;17770;45.966;13.632;2023-05-01T07:11:23;100516.50;;;21.29;56.16
31121;BME280;17770;45.966;13.632;2023-05-01T07:13:49;100519.97;;;21.30;56.09
31121;BME280;17770;45.966;13.632;2023-05-01T07:16:15;100518.22;;;21.30;55.92
31121;BME280;17770;45.966;13.632;2023-05-01T07:18:41;100524.28;;;21.31;55.77
31121;BME280;17770;45.966;13.632;2023-05-01T07:21:06;100521.66;;;21.31;55.95
31121;BME280;17770;45.966;13.632;2023-05-01T07:23:34;100518.22;;;21.30;55.80
31121;BME280;17770;45.966;13.632;2023-05-01T07:26:00;100517.25;;;21.31;56.06
31121;BME280;17770;45.966;13.632;2023-05-01T07:28:26;100514.63;;;21.31;56.02
31121;BME280;17770;45.966;13.632;2023-05-01T07:30:52;100516.28;;;21.32;55.86
31121;BME280;17770;45.966;13.632;2023-05-01T07:33:18;100513.66;;;21.32;56.16
31121;BME280;17770;45.966;13.632;2023-05-01T07:35:43;100516.28;;;21.32;55.69
31121;BME280;17770;45.966;13.632;2023-05-01T07:38:09;100516.28;;;21.32;55.72
31121;BME280;17770;45.966;13.632;2023-05-01T07:40:35;100516.19;;;21.34;55.74
31121;BME280;17770;45.966;13.632;2023-05-01T07:43:03;100516.91;;;21.36;55.68
31121;BME280;17770;45.966;13.632;2023-05-01T07:45:29;100510.84;;;21.35;55.78
31121;BME280;17770;45.966;13.632;2023-05-01T07:47:55;100504.63;;;21.36;55.84
31121;BME280;17770;45.966;13.632;2023-05-01T07:50:21;100502.75;;;21.38;55.54
31121;BME280;17770;45.966;13.632;2023-05-01T07:52:47;100504.53;;;21.38;55.81
31121;BME280;17770;45.966;13.632;2023-05-01T07:55:13;100509.78;;;21.38;55.67
31121;BME280;17770;45.966;13.632;2023-05-01T07:57:39;100504.41;;;21.39;55.64
31121;BME280;17770;45.966;13.632;2023-05-01T08:00:05;100509.56;;;21.41;55.65
31121;BME280;17770;45.966;13.632;2023-05-01T08:02:39;100508.50;;;21.43;55.67
31121;BME280;17770;45.966;13.632;2023-05-01T08:05:05;100511.84;;;21.45;55.41
31121;BME280;17770;45.966;13.632;2023-05-01T08:07:31;100510.06;;;21.46;55.61
31121;BME280;17770;45.966;13.632;2023-05-01T08:09:57;100510.06;;;21.46;55.54
31121;BME280;17770;45.966;13.632;2023-05-01T08:12:25;100513.41;;;21.48;55.51
31121;BME280;17770;45.966;13.632;2023-05-01T08:14:51;100502.06;;;21.47;55.49
31121;BME280;17770;45.966;13.632;2023-05-01T08:17:17;100516.03;;;21.48;55.62
31121;BME280;17770;45.966;13.632;2023-05-01T08:19:43;100511.53;;;21.50;55.49
31121;BME280;17770;45.966;13.632;2023-05-01T08:22:10;100509.72;;;21.50;55.38
31121;BME280;17770;45.966;13.632;2023-05-01T08:24:39;100506.16;;;21.51;55.64
31121;BME280;17770;45.966;13.632;2023-05-01T08:27:07;100513.94;;;21.53;55.70
31121;BME280;17770;45.966;13.632;2023-05-01T08:29:34;100508.56;;;21.54;55.46
31121;BME280;17770;45.966;13.632;2023-05-01T08:31:59;100504.03;;;21.56;55.32
31121;BME280;17770;45.966;13.632;2023-05-01T08:34:25;100509.31;;;21.56;55.36
31121;BME280;17770;45.966;13.632;2023-05-01T08:36:51;100503.09;;;21.57;55.52
31121;BME280;17770;45.966;13.632;2023-05-01T08:39:17;100499.63;;;21.57;55.61
31121;BME280;17770;45.966;13.632;2023-05-01T08:41:44;100500.47;;;21.57;55.56
31121;BME280;17770;45.966;13.632;2023-05-01T08:44:11;100502.16;;;21.58;55.72
31121;BME280;17770;45.966;13.632;2023-05-01T08:49:11;100502.84;;;21.60;55.28
31121;BME280;17770;45.966;13.632;2023-05-01T08:51:37;100504.56;;;21.61;56.04
31121;BME280;17770;45.966;13.632;2023-05-01T08:54:04;100506.34;;;21.61;55.65
31121;BME280;17770;45.966;13.632;2023-05-01T08:56:30;100504.44;;;21.63;55.72
31121;BME280;17770;45.966;13.632;2023-05-01T08:58:56;100491.31;;;21.63;55.43
31121;BME280;17770;45.966;13.632;2023-05-01T09:01:23;100502.66;;;21.63;55.39
31121;BME280;17770;45.966;13.632;2023-05-01T09:03:49;100505.19;;;21.65;55.75
31121;BME280;17770;45.966;13.632;2023-05-01T09:06:17;100501.59;;;21.66;55.71
31121;BME280;17770;45.966;13.632;2023-05-01T09:08:43;100501.59;;;21.66;56.25
31121;BME280;17770;45.966;13.632;2023-05-01T09:11:10;100498.13;;;21.65;56.11
31121;BME280;17770;45.966;13.632;2023-05-01T09:13:36;100499.81;;;21.66;56.34
31121;BME280;17770;45.966;13.632;2023-05-01T09:16:03;100500.63;;;21.67;56.83
31121;BME280;17770;45.966;13.632;2023-05-01T09:18:29;100495.38;;;21.67;56.54
31121;BME280;17770;45.966;13.632;2023-05-01T09:20:56;100494.31;;;21.69;56.07
31121;BME280;17770;45.966;13.632;2023-05-01T09:23:22;100492.44;;;21.71;56.37
31121;BME280;17770;45.966;13.632;2023-05-01T09:25:48;100488.00;;;21.72;56.55
31121;BME280;17770;45.966;13.632;2023-05-01T09:28:14;100492.31;;;21.73;56.77
31121;BME280;17770;45.966;13.632;2023-05-01T09:30:41;100497.47;;;21.74;56.59
31121;BME280;17770;45.966;13.632;2023-05-01T09:33:11;100499.97;;;21.76;56.98
31121;BME280;17770;45.966;13.632;2023-05-01T09:35:53;100497.25;;;21.77;57.00
31121;BME280;17770;45.966;13.632;2023-05-01T09:38:23;100493.66;;;21.78;56.45
31121;BME280;17770;45.966;13.632;2023-05-01T09:40:49;100501.44;;;21.80;56.55
31121;BME280;17770;45.966;13.632;2023-05-01T09:43:25;100494.41;;;21.80;56.97
31121;BME280;17770;45.966;13.632;2023-05-01T09:46:01;100489.88;;;21.82;57.26
31121;BME280;17770;45.966;13.632;2023-05-01T09:48:29;100488.91;;;21.83;57.18
31121;BME280;17770;45.966;13.632;2023-05-01T09:50:55;100488.00;;;21.84;56.27
31121;BME280;17770;45.966;13.632;2023-05-01T09:53:32;100491.34;;;21.86;56.82
31121;BME280;17770;45.966;13.632;2023-05-01T09:56:01;100487.75;;;21.87;57.08
31121;BME280;17770;45.966;13.632;2023-05-01T09:58:27;100485.97;;;21.88;56.78
31121;BME280;17770;45.966;13.632;2023-05-01T10:00:53;100486.78;;;21.88;57.66
31121;BME280;17770;45.966;13.632;2023-05-01T10:03:19;100483.22;;;21.89;57.03
31121;BME280;17770;45.966;13.632;2023-05-01T10:05:45;100491.94;;;21.90;56.98
31121;BME280;17770;45.966;13.632;2023-05-01T10:08:11;100491.00;;;21.91;56.38
31121;BME280;17770;45.966;13.632;2023-05-01T10:10:40;100487.41;;;21.92;56.46
31121;BME280;17770;45.966;13.632;2023-05-01T10:13:14;100491.59;;;21.94;57.74
31121;BME280;17770;45.966;13.632;2023-05-01T10:15:40;100492.44;;;21.95;56.41
31121;BME280;17770;45.966;13.632;2023-05-01T10:18:08;100481.09;;;21.94;56.02
31121;BME280;17770;45.966;13.632;2023-05-01T10:20:34;100476.53;;;21.96;57.76
31121;BME280;17770;45.966;13.632;2023-05-01T10:23:03;100483.50;;;21.98;56.14
31121;BME280;17770;45.966;13.632;2023-05-01T10:25:29;100488.63;;;21.99;56.01
31121;BME280;17770;45.966;13.632;2023-05-01T10:27:55;100480.63;;;22.01;56.02
31121;BME280;17770;45.966;13.632;2023-05-01T10:30:22;100476.13;;;22.03;56.08
31121;BME280;17770;45.966;13.632;2023-05-01T10:32:48;100477.88;;;22.02;55.81
31121;BME280;17770;45.966;13.632;2023-05-01T10:35:17;100482.22;;;22.03;56.43
31121;BME280;17770;45.966;13.632;2023-05-01T10:37:54;100479.47;;;22.05;56.54
31121;BME280;17770;45.966;13.632;2023-05-01T10:43:23;100472.91;;;22.10;57.27
31121;BME280;17770;45.966;13.632;2023-05-01T10:53:35;100471.59;;;22.16;56.40
31121;BME280;17770;45.966;13.632;2023-05-01T10:56:01;100460.25;;;22.15;56.62
31121;BME280;17770;45.966;13.632;2023-05-01T11:01:26;100459.19;;;22.18;56.45
31121;BME280;17770;45.966;13.632;2023-05-01T11:03:53;100459.91;;;22.20;57.28
31121;BME280;17770;45.966;13.632;2023-05-01T11:06:19;100449.88;;;22.25;58.63
31121;BME280;17770;45.966;13.632;2023-05-01T11:08:45;100456.47;;;22.30;58.35
31121;BME280;17770;45.966;13.632;2023-05-01T11:13:56;100447.16;;;22.37;58.28
31121;BME280;17770;45.966;13.632;2023-05-01T11:19:04;100445.03;;;22.42;58.74
31121;BME280;17770;45.966;13.632;2023-05-01T11:21:30;100451.81;;;22.45;62.85
31121;BME280;17770;45.966;13.632;2023-05-01T11:24:04;100443.94;;;22.45;57.25
31121;BME280;17770;45.966;13.632;2023-05-01T11:26:30;100442.16;;;22.45;55.80
31121;BME280;17770;45.966;13.632;2023-05-01T11:28:57;100437.00;;;22.44;55.80
31121;BME280;17770;45.966;13.632;2023-05-01T11:31:27;100440.50;;;22.44;55.27
31121;BME280;17770;45.966;13.632;2023-05-01T11:33:57;100431.03;;;22.42;54.44
31121;BME280;17770;45.966;13.632;2023-05-01T11:36:23;100432.72;;;22.43;54.31
31121;BME280;17770;45.966;13.632;2023-05-01T11:38:53;100434.38;;;22.44;54.11
31121;BME280;17770;45.966;13.632;2023-05-01T11:41:23;100427.22;;;22.46;54.90
31121;BME280;17770;45.966;13.632;2023-05-01T11:46:25;100425.28;;;22.48;56.74
31121;BME280;17770;45.966;13.632;2023-05-01T11:48:55;100426.66;;;22.53;61.03
31121;BME280;17770;45.966;13.632;2023-05-01T11:51:21;100426.53;;;22.55;55.73
31121;BME280;17770;45.966;13.632;2023-05-01T11:56:22;100418.00;;;22.51;53.09
31121;BME280;17770;45.966;13.632;2023-05-01T11:58:48;100413.59;;;22.52;52.91
31121;BME280;17770;45.966;13.632;2023-05-01T12:01:15;100418.00;;;22.51;52.93
31121;BME280;17770;45.966;13.632;2023-05-01T12:03:42;100417.31;;;22.49;54.27
31121;BME280;17770;45.966;13.632;2023-05-01T12:06:09;100422.13;;;22.55;56.73
31121;BME280;17770;45.966;13.632;2023-05-01T12:08:46;100417.22;;;22.62;57.81
31121;BME280;17770;45.966;13.632;2023-05-01T12:11:14;100408.97;;;22.66;56.97
31121;BME280;17770;45.966;13.632;2023-05-01T12:13:40;100419.34;;;22.68;55.07
31121;BME280;17770;45.966;13.632;2023-05-01T12:16:06;100415.91;;;22.67;55.35
31121;BME280;17770;45.966;13.632;2023-05-01T12:18:33;100418.28;;;22.70;55.37
31121;BME280;17770;45.966;13.632;2023-05-01T12:20:58;100409.19;;;22.74;55.51
31121;BME280;17770;45.966;13.632;2023-05-01T12:23:29;100401.16;;;22.76;55.31
31121;BME280;17770;45.966;13.632;2023-05-01T12:25:56;100411.69;;;22.76;54.77
31121;BME280;17770;45.966;13.632;2023-05-01T12:28:22;100405.50;;;22.77;54.74
31121;BME280;17770;45.966;13.632;2023-05-01T12:30:48;100407.75;;;22.81;55.19
31121;BME280;17770;45.966;13.632;2023-05-01T12:33:15;100405.13;;;22.81;54.39
31121;BME280;17770;45.966;13.632;2023-05-01T12:35:41;100407.75;;;22.81;54.29
31121;BME280;17770;45.966;13.632;2023-05-01T12:38:10;100399.13;;;22.79;54.35
31121;BME280;17770;45.966;13.632;2023-05-01T12:40:38;100399.97;;;22.80;55.14
31121;BME280;17770;45.966;13.632;2023-05-01T12:43:04;100403.47;;;22.80;55.23
31121;BME280;17770;45.966;13.632;2023-05-01T12:45:36;100407.03;;;22.79;54.26
31121;BME280;17770;45.966;13.632;2023-05-01T12:48:08;100398.19;;;22.80;53.70
31121;BME280;17770;45.966;13.632;2023-05-01T12:50:37;100397.22;;;22.81;55.07
31121;BME280;17770;45.966;13.632;2023-05-01T12:53:03;100396.63;;;22.89;57.27
31121;BME280;17770;45.966;13.632;2023-05-01T12:55:29;100401.53;;;22.93;55.25
31121;BME280;17770;45.966;13.632;2023-05-01T12:57:55;100398.66;;;22.96;55.87
31121;BME280;17770;45.966;13.632;2023-05-01T13:00:21;100397.56;;;22.99;56.44
31121;BME280;17770;45.966;13.632;2023-05-01T13:02:47;100400.66;;;23.04;57.67
31121;BME280;17770;45.966;13.632;2023-05-01T13:05:13;100390.84;;;23.06;56.30
31121;BME280;17770;45.966;13.632;2023-05-01T13:07:39;100394.91;;;23.10;57.03
31121;BME280;17770;45.966;13.632;2023-05-01T13:10:12;100396.44;;;23.12;57.64
31121;BME280;17770;45.966;13.632;2023-05-01T13:12:44;100389.28;;;23.14;58.61
31121;BME280;17770;45.966;13.632;2023-05-01T13:15:20;100392.63;;;23.16;57.51
31121;BME280;17770;45.966;13.632;2023-05-01T13:17:46;100391.53;;;23.19;56.66
31121;BME280;17770;45.966;13.632;2023-05-01T13:20:12;100387.81;;;23.21;57.86
31121;BME280;17770;45.966;13.632;2023-05-01T13:22:39;100392.13;;;23.22;59.36
31121;BME280;17770;45.966;13.632;2023-05-01T13:25:15;100384.94;;;23.24;59.95